sensor_id;sensor_type;location;lat;lon;timestamp;temperature;humidity
8408;DHT22;4241;48.452;9.216;2023-08-06T00:04:15;15.40;99.90
8408;DHT22;4241;48.452;9.216;2023-08-06T00:06:42;15.40;99.90
8408;DHT22;4241;48.452;9.216;2023-08-06T00:11:36;15.30;99.90
8408;DHT22;4241;48.452;9.216;2023-08-06T00:14:04;15.30;99.90
8408;DHT22;4241;48.452;9.216;2023-08-06T00:16:31;15.30;99.90
8408;DHT22;4241;48.452;9.216;2023-08-06T00:18:58;15.30;99.90
8408;DHT22;4241;48.452;9.216;2023-08-06T00:21:25;15.10;99.90
8408;DHT22;4241;48.452;9.216;2023-08-06T00:23:51;15.20;99.90
8408;DHT22;4241;48.452;9.216;2023-08-06T00:26:18;15.20;99.90
8408;DHT22;4241;48.452;9.216;2023-08-06T00:28:45;15.10;99.90
8408;DHT22;4241;48.452;9.216;2023-08-06T00:31:13;15.10;99.90
8408;DHT22;4241;48.452;9.216;2023-08-06T00:33:40;15.00;99.90
8408;DHT22;4241;48.452;9.216;2023-08-06T00:36:07;15.10;99.90
8408;DHT22;4241;48.452;9.216;2023-08-06T00:38:33;15.10;99.90
8408;DHT22;4241;48.452;9.216;2023-08-06T00:41:00;14.90;99.90
8408;DHT22;4241;48.452;9.216;2023-08-06T00:43:27;14.90;99.90
8408;DHT22;4241;48.452;9.216;2023-08-06T00:45:54;14.90;99.90
8408;DHT22;4241;48.452;9.216;2023-08-06T00:48:23;14.60;99.90
8408;DHT22;4241;48.452;9.216;2023-08-06T00:50:49;14.70;99.90
8408;DHT22;4241;48.452;9.216;2023-08-06T00:53:17;14.60;99.90
8408;DHT22;4241;48.452;9.216;2023-08-06T00:55:44;14.60;99.90
8408;DHT22;4241;48.452;9.216;2023-08-06T00:58:12;14.50;99.90
8408;DHT22;4241;48.452;9.216;2023-08-06T01:00:39;14.50;99.90
8408;DHT22;4241;48.452;9.216;2023-08-06T01:03:06;14.50;99.90
8408;DHT22;4241;48.452;9.216;2023-08-06T01:05:34;14.50;99.90
8408;DHT22;4241;48.452;9.216;2023-08-06T01:08:11;14.40;99.90
8408;DHT22;4241;48.452;9.216;2023-08-06T01:10:45;14.40;99.90
8408;DHT22;4241;48.452;9.216;2023-08-06T01:13:22;14.30;99.90
8408;DHT22;4241;48.452;9.216;2023-08-06T01:15:53;14.30;99.90
8408;DHT22;4241;48.452;9.216;2023-08-06T01:18:21;14.40;99.90
8408;DHT22;4241;48.452;9.216;2023-08-06T01:20:49;14.40;99.90
8408;DHT22;4241;48.452;9.216;2023-08-06T01:25:56;14.40;99.90
8408;DHT22;4241;48.452;9.216;2023-08-06T01:28:26;14.30;99.90
8408;DHT22;4241;48.452;9.216;2023-08-06T01:30:57;14.30;99.90
8408;DHT22;4241;48.452;9.216;2023-08-06T01:33:27;14.40;99.90
8408;DHT22;4241;48.452;9.216;2023-08-06T01:35:59;14.40;99.90
8408;DHT22;4241;48.452;9.216;2023-08-06T01:38:26;14.20;99.90
8408;DHT22;4241;48.452;9.216;2023-08-06T01:40:53;14.20;99.90
8408;DHT22;4241;48.452;9.216;2023-08-06T01:43:20;14.20;99.90
8408;DHT22;4241;48.452;9.216;2023-08-06T01:45:47;14.10;99.90
8408;DHT22;4241;48.452;9.216;2023-08-06T01:48:14;14.20;99.90
8408;DHT22;4241;48.452;9.216;2023-08-06T01:55:36;14.10;99.90
8408;DHT22;4241;48.452;9.216;2023-08-06T01:58:03;14.10;99.90
8408;DHT22;4241;48.452;9.216;2023-08-06T02:00:30;14.10;99.90
8408;DHT22;4241;48.452;9.216;2023-08-06T02:02:56;14.10;99.90
8408;DHT22;4241;48.452;9.216;2023-08-06T02:07:50;14.10;99.90
8408;DHT22;4241;48.452;9.216;2023-08-06T02:10:18;14.20;99.90
8408;DHT22;4241;48.452;9.216;2023-08-06T02:12:45;14.20;99.90
8408;DHT22;4241;48.452;9.216;2023-08-06T02:17:39;14.30;99.90
8408;DHT22;4241;48.452;9.216;2023-08-06T02:20:07;14.30;99.90
8408;DHT22;4241;48.452;9.216;2023-08-06T02:22:34;14.40;99.90
8408;DHT22;4241;48.452;9.216;2023-08-06T02:25:00;14.30;99.90
8408;DHT22;4241;48.452;9.216;2023-08-06T02:27:28;14.10;99.90
8408;DHT22;4241;48.452;9.216;2023-08-06T02:29:55;14.00;99.90
8408;DHT22;4241;48.452;9.216;2023-08-06T02:32:22;14.00;99.90
8408;DHT22;4241;48.452;9.216;2023-08-06T02:34:49;14.10;99.90
8408;DHT22;4241;48.452;9.216;2023-08-06T02:42:10;14.00;99.90
8408;DHT22;4241;48.452;9.216;2023-08-06T02:44:38;13.90;99.90
8408;DHT22;4241;48.452;9.216;2023-08-06T02:47:05;14.00;99.90
8408;DHT22;4241;48.452;9.216;2023-08-06T02:59:20;14.10;99.90
8408;DHT22;4241;48.452;9.216;2023-08-06T03:06:43;14.20;99.90
8408;DHT22;4241;48.452;9.216;2023-08-06T03:11:37;14.30;99.90
8408;DHT22;4241;48.452;9.216;2023-08-06T03:16:31;14.20;99.90
8408;DHT22;4241;48.452;9.216;2023-08-06T03:18:59;14.40;99.90
8408;DHT22;4241;48.452;9.216;2023-08-06T03:23:53;14.30;99.90
8408;DHT22;4241;48.452;9.216;2023-08-06T03:26:20;14.30;99.90
8408;DHT22;4241;48.452;9.216;2023-08-06T03:28:47;14.40;99.90
8408;DHT22;4241;48.452;9.216;2023-08-06T03:31:13;14.40;99.90
8408;DHT22;4241;48.452;9.216;2023-08-06T03:33:40;14.50;99.90
8408;DHT22;4241;48.452;9.216;2023-08-06T03:36:08;14.30;99.90
8408;DHT22;4241;48.452;9.216;2023-08-06T03:38:35;14.40;99.90
8408;DHT22;4241;48.452;9.216;2023-08-06T03:45:56;14.50;99.90
8408;DHT22;4241;48.452;9.216;2023-08-06T03:50:50;14.60;99.90
8408;DHT22;4241;48.452;9.216;2023-08-06T03:53:18;14.60;99.90
8408;DHT22;4241;48.452;9.216;2023-08-06T03:58:12;14.70;99.90
8408;DHT22;4241;48.452;9.216;2023-08-06T04:00:39;14.60;99.90
8408;DHT22;4241;48.452;9.216;2023-08-06T04:03:05;14.60;99.90
8408;DHT22;4241;48.452;9.216;2023-08-06T04:05:32;14.60;99.90
8408;DHT22;4241;48.452;9.216;2023-08-06T04:07:59;14.60;99.90
8408;DHT22;4241;48.452;9.216;2023-08-06T04:10:27;14.50;99.90
8408;DHT22;4241;48.452;9.216;2023-08-06T04:15:21;14.30;99.90
8408;DHT22;4241;48.452;9.216;2023-08-06T04:20:15;14.80;99.90
8408;DHT22;4241;48.452;9.216;2023-08-06T04:22:42;14.20;99.90
8408;DHT22;4241;48.452;9.216;2023-08-06T04:25:09;14.20;99.90
8408;DHT22;4241;48.452;9.216;2023-08-06T04:27:37;14.10;99.90
8408;DHT22;4241;48.452;9.216;2023-08-06T04:30:07;14.20;99.90
8408;DHT22;4241;48.452;9.216;2023-08-06T04:35:01;14.10;99.90
8408;DHT22;4241;48.452;9.216;2023-08-06T04:37:28;14.10;99.90
8408;DHT22;4241;48.452;9.216;2023-08-06T04:42:24;14.10;99.90
8408;DHT22;4241;48.452;9.216;2023-08-06T04:44:52;14.00;99.90
8408;DHT22;4241;48.452;9.216;2023-08-06T04:47:19;14.20;99.90
8408;DHT22;4241;48.452;9.216;2023-08-06T04:54:40;14.00;99.90
8408;DHT22;4241;48.452;9.216;2023-08-06T04:57:07;14.00;99.90
8408;DHT22;4241;48.452;9.216;2023-08-06T04:59:34;14.00;99.90
8408;DHT22;4241;48.452;9.216;2023-08-06T05:02:02;13.90;99.90
8408;DHT22;4241;48.452;9.216;2023-08-06T05:06:56;13.80;99.90
8408;DHT22;4241;48.452;9.216;2023-08-06T05:09:23;13.90;99.90
8408;DHT22;4241;48.452;9.216;2023-08-06T05:19:12;13.90;99.90
8408;DHT22;4241;48.452;9.216;2023-08-06T05:26:34;13.90;99.90
8408;DHT22;4241;48.452;9.216;2023-08-06T05:36:23;13.90;99.90
8408;DHT22;4241;48.452;9.216;2023-08-06T05:38:50;13.80;99.90
8408;DHT22;4241;48.452;9.216;2023-08-06T05:43:44;13.70;99.90
8408;DHT22;4241;48.452;9.216;2023-08-06T05:46:11;13.90;99.90
8408;DHT22;4241;48.452;9.216;2023-08-06T05:51:05;14.10;99.90
8408;DHT22;4241;48.452;9.216;2023-08-06T05:53:34;14.10;99.90
8408;DHT22;4241;48.452;9.216;2023-08-06T06:00:55;14.20;99.90
8408;DHT22;4241;48.452;9.216;2023-08-06T06:05:49;14.20;99.90
8408;DHT22;4241;48.452;9.216;2023-08-06T06:08:16;14.40;99.90
8408;DHT22;4241;48.452;9.216;2023-08-06T06:10:44;14.20;99.90
8408;DHT22;4241;48.452;9.216;2023-08-06T06:13:11;14.30;99.90
8408;DHT22;4241;48.452;9.216;2023-08-06T06:20:32;14.30;99.90
8408;DHT22;4241;48.452;9.216;2023-08-06T06:22:59;14.40;99.90
8408;DHT22;4241;48.452;9.216;2023-08-06T06:30:21;14.60;99.90
8408;DHT22;4241;48.452;9.216;2023-08-06T06:32:48;14.60;99.90
8408;DHT22;4241;48.452;9.216;2023-08-06T06:37:42;14.60;99.90
8408;DHT22;4241;48.452;9.216;2023-08-06T06:40:10;14.70;99.90
8408;DHT22;4241;48.452;9.216;2023-08-06T06:42:37;14.80;99.90
8408;DHT22;4241;48.452;9.216;2023-08-06T06:45:06;14.70;99.90
8408;DHT22;4241;48.452;9.216;2023-08-06T06:47:33;15.00;99.90
8408;DHT22;4241;48.452;9.216;2023-08-06T06:52:27;14.90;99.90
8408;DHT22;4241;48.452;9.216;2023-08-06T06:57:21;15.00;99.90
8408;DHT22;4241;48.452;9.216;2023-08-06T07:02:16;15.00;99.90
8408;DHT22;4241;48.452;9.216;2023-08-06T07:09:37;14.90;99.90
8408;DHT22;4241;48.452;9.216;2023-08-06T07:12:05;14.80;99.90
8408;DHT22;4241;48.452;9.216;2023-08-06T07:14:32;14.90;99.90
8408;DHT22;4241;48.452;9.216;2023-08-06T07:24:22;14.80;99.90
8408;DHT22;4241;48.452;9.216;2023-08-06T07:29:17;14.70;99.90
8408;DHT22;4241;48.452;9.216;2023-08-06T07:31:47;14.60;99.90
8408;DHT22;4241;48.452;9.216;2023-08-06T07:34:15;14.60;99.90
8408;DHT22;4241;48.452;9.216;2023-08-06T07:36:45;14.60;99.90
8408;DHT22;4241;48.452;9.216;2023-08-06T07:39:12;14.40;99.90
8408;DHT22;4241;48.452;9.216;2023-08-06T07:41:39;14.50;99.90
8408;DHT22;4241;48.452;9.216;2023-08-06T07:44:06;14.30;99.90
8408;DHT22;4241;48.452;9.216;2023-08-06T07:49:00;14.50;99.90
8408;DHT22;4241;48.452;9.216;2023-08-06T07:53:56;14.70;99.90
8408;DHT22;4241;48.452;9.216;2023-08-06T08:01:17;14.80;99.90
8408;DHT22;4241;48.452;9.216;2023-08-06T08:06:11;15.00;99.90
8408;DHT22;4241;48.452;9.216;2023-08-06T08:11:07;15.10;99.90
8408;DHT22;4241;48.452;9.216;2023-08-06T08:13:33;15.00;99.90
8408;DHT22;4241;48.452;9.216;2023-08-06T08:23:24;15.20;99.90
8408;DHT22;4241;48.452;9.216;2023-08-06T08:25:51;15.00;99.90
8408;DHT22;4241;48.452;9.216;2023-08-06T08:28:19;15.00;99.90
8408;DHT22;4241;48.452;9.216;2023-08-06T08:30:46;14.90;99.90
8408;DHT22;4241;48.452;9.216;2023-08-06T08:35:39;14.80;99.90
8408;DHT22;4241;48.452;9.216;2023-08-06T08:38:06;14.70;99.90
8408;DHT22;4241;48.452;9.216;2023-08-06T08:40:35;14.70;99.90
8408;DHT22;4241;48.452;9.216;2023-08-06T08:43:10;14.70;99.90
8408;DHT22;4241;48.452;9.216;2023-08-06T08:45:39;14.90;99.90
8408;DHT22;4241;48.452;9.216;2023-08-06T08:48:09;14.90;99.90
8408;DHT22;4241;48.452;9.216;2023-08-06T08:50:38;15.10;99.90
8408;DHT22;4241;48.452;9.216;2023-08-06T08:55:33;15.30;99.90
8408;DHT22;4241;48.452;9.216;2023-08-06T08:58:00;15.40;99.90
8408;DHT22;4241;48.452;9.216;2023-08-06T09:00:28;15.40;99.90
8408;DHT22;4241;48.452;9.216;2023-08-06T09:02:57;15.40;99.90
8408;DHT22;4241;48.452;9.216;2023-08-06T09:05:28;15.30;99.90
8408;DHT22;4241;48.452;9.216;2023-08-06T09:08:00;15.30;99.90
8408;DHT22;4241;48.452;9.216;2023-08-06T09:12:56;15.40;99.90
8408;DHT22;4241;48.452;9.216;2023-08-06T09:15:24;15.40;99.90
8408;DHT22;4241;48.452;9.216;2023-08-06T09:20:20;15.50;99.90
8408;DHT22;4241;48.452;9.216;2023-08-06T09:25:21;15.90;99.90
8408;DHT22;4241;48.452;9.216;2023-08-06T09:27:50;15.90;99.90
8408;DHT22;4241;48.452;9.216;2023-08-06T09:30:29;16.20;99.90
8408;DHT22;4241;48.452;9.216;2023-08-06T09:32:56;16.30;99.90
8408;DHT22;4241;48.452;9.216;2023-08-06T09:35:27;16.10;99.90
8408;DHT22;4241;48.452;9.216;2023-08-06T09:37:54;16.20;99.90
8408;DHT22;4241;48.452;9.216;2023-08-06T09:40:28;16.40;99.90
8408;DHT22;4241;48.452;9.216;2023-08-06T09:42:56;16.40;99.90
8408;DHT22;4241;48.452;9.216;2023-08-06T09:45:23;16.80;99.90
8408;DHT22;4241;48.452;9.216;2023-08-06T09:47:50;16.70;99.90
8408;DHT22;4241;48.452;9.216;2023-08-06T09:50:17;16.80;99.90
8408;DHT22;4241;48.452;9.216;2023-08-06T09:52:47;16.80;99.90
8408;DHT22;4241;48.452;9.216;2023-08-06T09:55:14;16.70;99.90
8408;DHT22;4241;48.452;9.216;2023-08-06T09:57:43;16.70;99.90
8408;DHT22;4241;48.452;9.216;2023-08-06T10:00:11;16.20;99.90
8408;DHT22;4241;48.452;9.216;2023-08-06T10:02:39;16.20;99.90
8408;DHT22;4241;48.452;9.216;2023-08-06T10:05:07;15.80;99.90
8408;DHT22;4241;48.452;9.216;2023-08-06T10:07:35;15.90;99.90
8408;DHT22;4241;48.452;9.216;2023-08-06T10:10:04;15.90;99.90
8408;DHT22;4241;48.452;9.216;2023-08-06T10:12:33;15.50;99.90
8408;DHT22;4241;48.452;9.216;2023-08-06T10:15:04;15.40;99.90
8408;DHT22;4241;48.452;9.216;2023-08-06T10:17:33;15.20;99.90
8408;DHT22;4241;48.452;9.216;2023-08-06T10:20:00;15.20;99.90
8408;DHT22;4241;48.452;9.216;2023-08-06T10:22:27;14.90;99.90
8408;DHT22;4241;48.452;9.216;2023-08-06T10:24:55;15.00;99.90
8408;DHT22;4241;48.452;9.216;2023-08-06T10:27:29;14.90;99.90
8408;DHT22;4241;48.452;9.216;2023-08-06T10:29:56;14.90;99.90
8408;DHT22;4241;48.452;9.216;2023-08-06T10:32:49;14.80;99.90
8408;DHT22;4241;48.452;9.216;2023-08-06T10:35:33;14.70;99.90
8408;DHT22;4241;48.452;9.216;2023-08-06T10:38:05;14.80;99.90
8408;DHT22;4241;48.452;9.216;2023-08-06T10:43:03;14.80;99.90
8408;DHT22;4241;48.452;9.216;2023-08-06T10:45:35;15.00;99.90
8408;DHT22;4241;48.452;9.216;2023-08-06T10:48:02;15.10;99.90
8408;DHT22;4241;48.452;9.216;2023-08-06T10:50:30;15.00;99.90
8408;DHT22;4241;48.452;9.216;2023-08-06T10:52:57;15.10;99.90
8408;DHT22;4241;48.452;9.216;2023-08-06T10:55:25;15.00;99.90
8408;DHT22;4241;48.452;9.216;2023-08-06T10:57:53;15.30;99.90
8408;DHT22;4241;48.452;9.216;2023-08-06T11:00:22;15.50;99.90
8408;DHT22;4241;48.452;9.216;2023-08-06T11:02:49;15.40;99.90
8408;DHT22;4241;48.452;9.216;2023-08-06T11:05:17;15.50;99.90
8408;DHT22;4241;48.452;9.216;2023-08-06T11:07:44;15.50;99.90
8408;DHT22;4241;48.452;9.216;2023-08-06T11:10:13;15.50;99.90
8408;DHT22;4241;48.452;9.216;2023-08-06T11:12:40;15.20;99.90
8408;DHT22;4241;48.452;9.216;2023-08-06T11:15:08;15.30;99.90
8408;DHT22;4241;48.452;9.216;2023-08-06T11:17:37;15.10;99.90
8408;DHT22;4241;48.452;9.216;2023-08-06T11:20:06;15.10;99.90
8408;DHT22;4241;48.452;9.216;2023-08-06T11:22:33;15.00;99.90
8408;DHT22;4241;48.452;9.216;2023-08-06T11:25:00;15.00;99.90
8408;DHT22;4241;48.452;9.216;2023-08-06T11:27:27;15.00;99.90
8408;DHT22;4241;48.452;9.216;2023-08-06T11:29:55;15.00;99.90
8408;DHT22;4241;48.452;9.216;2023-08-06T11:32:21;15.00;99.90
8408;DHT22;4241;48.452;9.216;2023-08-06T11:37:21;15.10;99.90
8408;DHT22;4241;48.452;9.216;2023-08-06T11:39:49;15.00;99.90
8408;DHT22;4241;48.452;9.216;2023-08-06T11:42:16;15.00;99.90
8408;DHT22;4241;48.452;9.216;2023-08-06T11:44:43;15.20;99.90
8408;DHT22;4241;48.452;9.216;2023-08-06T11:47:13;15.40;99.90
8408;DHT22;4241;48.452;9.216;2023-08-06T11:49:41;15.50;99.90
8408;DHT22;4241;48.452;9.216;2023-08-06T11:52:21;15.50;99.90
8408;DHT22;4241;48.452;9.216;2023-08-06T11:55:00;15.60;99.90
8408;DHT22;4241;48.452;9.216;2023-08-06T11:57:29;15.60;99.90
8408;DHT22;4241;48.452;9.216;2023-08-06T12:00:01;15.60;99.90
8408;DHT22;4241;48.452;9.216;2023-08-06T12:02:31;15.60;99.90
8408;DHT22;4241;48.452;9.216;2023-08-06T12:05:04;15.60;99.90
8408;DHT22;4241;48.452;9.216;2023-08-06T12:07:34;15.50;99.90
8408;DHT22;4241;48.452;9.216;2023-08-06T12:10:03;15.50;99.90
8408;DHT22;4241;48.452;9.216;2023-08-06T12:12:30;15.60;99.90
8408;DHT22;4241;48.452;9.216;2023-08-06T12:14:57;15.60;99.90
8408;DHT22;4241;48.452;9.216;2023-08-06T12:17:25;15.70;99.90
8408;DHT22;4241;48.452;9.216;2023-08-06T12:19:52;15.90;99.90
8408;DHT22;4241;48.452;9.216;2023-08-06T12:24:47;16.00;99.90
8408;DHT22;4241;48.452;9.216;2023-08-06T12:27:14;15.90;99.90
8408;DHT22;4241;48.452;9.216;2023-08-06T12:29:42;15.80;99.90
8408;DHT22;4241;48.452;9.216;2023-08-06T12:32:09;15.60;99.90
8408;DHT22;4241;48.452;9.216;2023-08-06T12:34:37;15.40;99.90
8408;DHT22;4241;48.452;9.216;2023-08-06T12:37:05;15.20;99.90
8408;DHT22;4241;48.452;9.216;2023-08-06T12:39:32;15.20;99.90
8408;DHT22;4241;48.452;9.216;2023-08-06T12:42:01;15.10;99.90
8408;DHT22;4241;48.452;9.216;2023-08-06T12:44:29;15.10;99.90
8408;DHT22;4241;48.452;9.216;2023-08-06T12:46:55;15.10;99.90
8408;DHT22;4241;48.452;9.216;2023-08-06T12:49:22;15.40;99.90
8408;DHT22;4241;48.452;9.216;2023-08-06T12:51:50;15.30;99.90
8408;DHT22;4241;48.452;9.216;2023-08-06T12:54:18;15.40;99.90
8408;DHT22;4241;48.452;9.216;2023-08-06T12:56:45;15.40;99.90
8408;DHT22;4241;48.452;9.216;2023-08-06T12:59:14;15.70;99.90
8408;DHT22;4241;48.452;9.216;2023-08-06T13:01:42;15.60;99.90
8408;DHT22;4241;48.452;9.216;2023-08-06T13:04:09;15.70;99.90
8408;DHT22;4241;48.452;9.216;2023-08-06T13:06:36;15.70;99.90
8408;DHT22;4241;48.452;9.216;2023-08-06T13:09:03;15.60;99.90
8408;DHT22;4241;48.452;9.216;2023-08-06T13:11:30;15.70;99.90
8408;DHT22;4241;48.452;9.216;2023-08-06T13:14:03;15.70;99.90
8408;DHT22;4241;48.452;9.216;2023-08-06T13:16:31;15.90;99.90
8408;DHT22;4241;48.452;9.216;2023-08-06T13:18:58;16.20;99.90
8408;DHT22;4241;48.452;9.216;2023-08-06T13:21:32;16.40;99.90
8408;DHT22;4241;48.452;9.216;2023-08-06T13:23:59;16.40;99.90
8408;DHT22;4241;48.452;9.216;2023-08-06T13:26:27;16.30;99.90
8408;DHT22;4241;48.452;9.216;2023-08-06T13:28:54;16.20;99.90
8408;DHT22;4241;48.452;9.216;2023-08-06T13:31:21;16.20;99.90
8408;DHT22;4241;48.452;9.216;2023-08-06T13:33:49;16.40;99.90
8408;DHT22;4241;48.452;9.216;2023-08-06T13:36:16;16.40;99.90
8408;DHT22;4241;48.452;9.216;2023-08-06T13:38:43;16.50;99.90
8408;DHT22;4241;48.452;9.216;2023-08-06T13:41:10;16.70;99.90
8408;DHT22;4241;48.452;9.216;2023-08-06T13:43:37;17.00;99.90
8408;DHT22;4241;48.452;9.216;2023-08-06T13:46:03;17.00;99.90
8408;DHT22;4241;48.452;9.216;2023-08-06T13:48:30;17.00;99.90
8408;DHT22;4241;48.452;9.216;2023-08-06T13:50:58;17.00;99.90
8408;DHT22;4241;48.452;9.216;2023-08-06T13:53:25;16.90;99.90
8408;DHT22;4241;48.452;9.216;2023-08-06T13:55:55;16.80;99.90
8408;DHT22;4241;48.452;9.216;2023-08-06T13:58:22;16.20;99.90
8408;DHT22;4241;48.452;9.216;2023-08-06T14:00:49;16.20;99.90
8408;DHT22;4241;48.452;9.216;2023-08-06T14:03:18;15.80;99.90
8408;DHT22;4241;48.452;9.216;2023-08-06T14:05:45;15.80;99.90
8408;DHT22;4241;48.452;9.216;2023-08-06T14:08:13;15.40;99.90
8408;DHT22;4241;48.452;9.216;2023-08-06T14:10:40;15.70;99.90
8408;DHT22;4241;48.452;9.216;2023-08-06T14:13:09;15.80;99.90
8408;DHT22;4241;48.452;9.216;2023-08-06T14:15:36;15.80;99.90
8408;DHT22;4241;48.452;9.216;2023-08-06T14:18:05;16.00;99.90
8408;DHT22;4241;48.452;9.216;2023-08-06T14:20:33;16.20;99.90
8408;DHT22;4241;48.452;9.216;2023-08-06T14:23:00;15.70;99.90
8408;DHT22;4241;48.452;9.216;2023-08-06T14:25:29;16.30;99.90
8408;DHT22;4241;48.452;9.216;2023-08-06T14:27:56;16.50;99.90
8408;DHT22;4241;48.452;9.216;2023-08-06T14:30:22;16.70;99.90
8408;DHT22;4241;48.452;9.216;2023-08-06T14:32:49;16.50;99.90
8408;DHT22;4241;48.452;9.216;2023-08-06T14:35:16;16.10;99.90
8408;DHT22;4241;48.452;9.216;2023-08-06T14:37:43;16.10;99.90
8408;DHT22;4241;48.452;9.216;2023-08-06T14:40:11;16.10;99.90
8408;DHT22;4241;48.452;9.216;2023-08-06T14:42:39;16.00;99.90
8408;DHT22;4241;48.452;9.216;2023-08-06T14:45:07;16.00;99.90
8408;DHT22;4241;48.452;9.216;2023-08-06T14:50:00;15.60;99.90
8408;DHT22;4241;48.452;9.216;2023-08-06T14:52:27;15.40;99.90
8408;DHT22;4241;48.452;9.216;2023-08-06T14:54:55;15.50;99.90
8408;DHT22;4241;48.452;9.216;2023-08-06T14:57:24;15.40;99.90
8408;DHT22;4241;48.452;9.216;2023-08-06T14:59:54;15.20;99.90
8408;DHT22;4241;48.452;9.216;2023-08-06T15:02:21;15.00;99.90
8408;DHT22;4241;48.452;9.216;2023-08-06T15:04:48;15.10;99.90
8408;DHT22;4241;48.452;9.216;2023-08-06T15:07:15;14.90;99.90
8408;DHT22;4241;48.452;9.216;2023-08-06T15:09:42;14.70;99.90
8408;DHT22;4241;48.452;9.216;2023-08-06T15:12:10;14.80;99.90
8408;DHT22;4241;48.452;9.216;2023-08-06T15:14:38;14.80;99.90
8408;DHT22;4241;48.452;9.216;2023-08-06T15:17:06;14.80;99.90
8408;DHT22;4241;48.452;9.216;2023-08-06T15:19:33;14.70;99.90
8408;DHT22;4241;48.452;9.216;2023-08-06T15:21:59;14.70;99.90
8408;DHT22;4241;48.452;9.216;2023-08-06T15:24:26;14.70;99.90
8408;DHT22;4241;48.452;9.216;2023-08-06T15:26:53;14.60;99.90
8408;DHT22;4241;48.452;9.216;2023-08-06T15:29:20;14.60;99.90
8408;DHT22;4241;48.452;9.216;2023-08-06T15:31:47;14.80;99.90
8408;DHT22;4241;48.452;9.216;2023-08-06T15:34:15;14.70;99.90
8408;DHT22;4241;48.452;9.216;2023-08-06T15:36:42;14.80;99.90
8408;DHT22;4241;48.452;9.216;2023-08-06T15:39:09;15.00;99.90
8408;DHT22;4241;48.452;9.216;2023-08-06T15:41:36;14.90;99.90
8408;DHT22;4241;48.452;9.216;2023-08-06T15:44:03;14.80;99.90
8408;DHT22;4241;48.452;9.216;2023-08-06T15:46:30;14.80;99.90
8408;DHT22;4241;48.452;9.216;2023-08-06T15:48:56;14.80;99.90
8408;DHT22;4241;48.452;9.216;2023-08-06T15:51:25;14.80;99.90
8408;DHT22;4241;48.452;9.216;2023-08-06T15:53:51;15.00;99.90
8408;DHT22;4241;48.452;9.216;2023-08-06T15:56:18;14.90;99.90
8408;DHT22;4241;48.452;9.216;2023-08-06T15:58:45;14.80;99.90
8408;DHT22;4241;48.452;9.216;2023-08-06T16:01:12;15.00;99.90
8408;DHT22;4241;48.452;9.216;2023-08-06T16:03:39;14.90;99.90
8408;DHT22;4241;48.452;9.216;2023-08-06T16:06:08;15.00;99.90
8408;DHT22;4241;48.452;9.216;2023-08-06T16:08:37;14.90;99.90
8408;DHT22;4241;48.452;9.216;2023-08-06T16:11:04;15.00;99.90
8408;DHT22;4241;48.452;9.216;2023-08-06T16:13:32;15.00;99.90
8408;DHT22;4241;48.452;9.216;2023-08-06T16:15:59;15.00;99.90
8408;DHT22;4241;48.452;9.216;2023-08-06T16:18:26;14.90;99.90
8408;DHT22;4241;48.452;9.216;2023-08-06T16:20:53;14.80;99.90
8408;DHT22;4241;48.452;9.216;2023-08-06T16:23:20;14.50;99.90
8408;DHT22;4241;48.452;9.216;2023-08-06T16:25:49;14.50;99.90
8408;DHT22;4241;48.452;9.216;2023-08-06T16:28:16;14.30;99.90
8408;DHT22;4241;48.452;9.216;2023-08-06T16:30:44;14.40;99.90
8408;DHT22;4241;48.452;9.216;2023-08-06T16:33:11;14.20;99.90
8408;DHT22;4241;48.452;9.216;2023-08-06T16:35:38;14.20;99.90
8408;DHT22;4241;48.452;9.216;2023-08-06T16:38:05;14.10;99.90
8408;DHT22;4241;48.452;9.216;2023-08-06T16:40:32;14.10;99.90
8408;DHT22;4241;48.452;9.216;2023-08-06T16:43:00;14.10;99.90
8408;DHT22;4241;48.452;9.216;2023-08-06T16:45:27;14.20;99.90
8408;DHT22;4241;48.452;9.216;2023-08-06T16:47:54;14.20;99.90
8408;DHT22;4241;48.452;9.216;2023-08-06T16:50:21;14.20;99.90
8408;DHT22;4241;48.452;9.216;2023-08-06T16:52:48;14.20;99.90
8408;DHT22;4241;48.452;9.216;2023-08-06T16:55:14;14.20;99.90
8408;DHT22;4241;48.452;9.216;2023-08-06T16:57:43;14.20;99.90
8408;DHT22;4241;48.452;9.216;2023-08-06T17:00:12;14.10;99.90
8408;DHT22;4241;48.452;9.216;2023-08-06T17:02:39;14.10;99.90
8408;DHT22;4241;48.452;9.216;2023-08-06T17:05:06;14.00;99.90
8408;DHT22;4241;48.452;9.216;2023-08-06T17:07:33;14.00;99.90
8408;DHT22;4241;48.452;9.216;2023-08-06T17:10:00;14.00;99.90
8408;DHT22;4241;48.452;9.216;2023-08-06T17:12:28;13.90;99.90
8408;DHT22;4241;48.452;9.216;2023-08-06T17:14:55;13.90;99.90
8408;DHT22;4241;48.452;9.216;2023-08-06T17:17:26;13.70;99.90
8408;DHT22;4241;48.452;9.216;2023-08-06T17:19:52;13.70;99.90
8408;DHT22;4241;48.452;9.216;2023-08-06T17:22:19;13.60;99.90
8408;DHT22;4241;48.452;9.216;2023-08-06T17:24:46;13.60;99.90
8408;DHT22;4241;48.452;9.216;2023-08-06T17:29:40;13.60;99.90
8408;DHT22;4241;48.452;9.216;2023-08-06T17:32:07;13.60;99.90
8408;DHT22;4241;48.452;9.216;2023-08-06T17:34:35;13.60;99.90
8408;DHT22;4241;48.452;9.216;2023-08-06T17:37:02;13.70;99.90
8408;DHT22;4241;48.452;9.216;2023-08-06T17:39:31;13.60;99.90
8408;DHT22;4241;48.452;9.216;2023-08-06T17:41:58;13.50;99.90
8408;DHT22;4241;48.452;9.216;2023-08-06T17:44:26;13.50;99.90
8408;DHT22;4241;48.452;9.216;2023-08-06T17:46:53;13.50;99.90
8408;DHT22;4241;48.452;9.216;2023-08-06T17:49:20;13.50;99.90
8408;DHT22;4241;48.452;9.216;2023-08-06T17:51:48;13.10;99.90
8408;DHT22;4241;48.452;9.216;2023-08-06T17:54:15;13.30;99.90
8408;DHT22;4241;48.452;9.216;2023-08-06T17:56:42;13.30;99.90
8408;DHT22;4241;48.452;9.216;2023-08-06T17:59:08;13.20;99.90
8408;DHT22;4241;48.452;9.216;2023-08-06T18:01:35;13.40;99.90
8408;DHT22;4241;48.452;9.216;2023-08-06T18:04:02;13.30;99.90
8408;DHT22;4241;48.452;9.216;2023-08-06T18:06:29;13.30;99.90
8408;DHT22;4241;48.452;9.216;2023-08-06T18:08:57;13.30;99.90
8408;DHT22;4241;48.452;9.216;2023-08-06T18:11:24;13.20;99.90
8408;DHT22;4241;48.452;9.216;2023-08-06T18:13:51;13.20;99.90
8408;DHT22;4241;48.452;9.216;2023-08-06T18:16:18;13.20;99.90
8408;DHT22;4241;48.452;9.216;2023-08-06T18:18:45;13.20;99.90
8408;DHT22;4241;48.452;9.216;2023-08-06T18:21:12;13.20;99.90
8408;DHT22;4241;48.452;9.216;2023-08-06T18:23:38;13.20;99.90
8408;DHT22;4241;48.452;9.216;2023-08-06T18:26:06;13.20;99.90
8408;DHT22;4241;48.452;9.216;2023-08-06T18:28:33;13.20;99.90
8408;DHT22;4241;48.452;9.216;2023-08-06T18:31:00;13.20;99.90
8408;DHT22;4241;48.452;9.216;2023-08-06T18:33:27;13.10;99.90
8408;DHT22;4241;48.452;9.216;2023-08-06T18:35:54;13.10;99.90
8408;DHT22;4241;48.452;9.216;2023-08-06T18:38:21;13.10;99.90
8408;DHT22;4241;48.452;9.216;2023-08-06T18:40:55;13.10;99.90
8408;DHT22;4241;48.452;9.216;2023-08-06T18:43:24;13.10;99.90
8408;DHT22;4241;48.452;9.216;2023-08-06T18:45:51;13.00;99.90
8408;DHT22;4241;48.452;9.216;2023-08-06T18:48:17;13.10;99.90
8408;DHT22;4241;48.452;9.216;2023-08-06T18:50:44;13.00;99.90
8408;DHT22;4241;48.452;9.216;2023-08-06T18:53:11;13.00;99.90
8408;DHT22;4241;48.452;9.216;2023-08-06T18:55:47;13.00;99.90
8408;DHT22;4241;48.452;9.216;2023-08-06T18:58:14;13.00;99.90
8408;DHT22;4241;48.452;9.216;2023-08-06T19:00:43;13.00;99.90
8408;DHT22;4241;48.452;9.216;2023-08-06T19:03:10;13.00;99.90
8408;DHT22;4241;48.452;9.216;2023-08-06T19:05:38;13.00;99.90
8408;DHT22;4241;48.452;9.216;2023-08-06T19:08:06;13.00;99.90
8408;DHT22;4241;48.452;9.216;2023-08-06T19:10:33;13.00;99.90